sensor_id;sensor_type;location;lat;lon;timestamp;pressure;altitude;pressure_sealevel;temperature;humidity
11525;BME280;5819;49.648;8.330;2023-10-13T00:02:06;100363.50;;;16.97;100.00
11525;BME280;5819;49.648;8.330;2023-10-13T00:04:34;100365.09;;;17.00;100.00
11525;BME280;5819;49.648;8.330;2023-10-13T00:07:04;100366.78;;;17.01;100.00
11525;BME280;5819;49.648;8.330;2023-10-13T00:09:36;100362.34;;;17.01;100.00
11525;BME280;5819;49.648;8.330;2023-10-13T00:12:05;100358.97;;;16.99;100.00
11525;BME280;5819;49.648;8.330;2023-10-13T00:14:36;100358.56;;;16.93;100.00
11525;BME280;5819;49.648;8.330;2023-10-13T00:17:07;100356.13;;;16.90;100.00
11525;BME280;5819;49.648;8.330;2023-10-13T00:19:38;100365.06;;;16.74;100.00
11525;BME280;5819;49.648;8.330;2023-10-13T00:22:13;100364.66;;;16.68;100.00
11525;BME280;5819;49.648;8.330;2023-10-13T00:24:43;100361.91;;;16.69;100.00
11525;BME280;5819;49.648;8.330;2023-10-13T00:27:13;100358.75;;;16.64;100.00
11525;BME280;5819;49.648;8.330;2023-10-13T00:29:58;100356.63;;;16.69;100.00
11525;BME280;5819;49.648;8.330;2023-10-13T00:32:47;100356.88;;;16.79;100.00
11525;BME280;5819;49.648;8.330;2023-10-13T00:35:20;100356.78;;;16.80;100.00
11525;BME280;5819;49.648;8.330;2023-10-13T00:37:55;100357.72;;;16.79;100.00
11525;BME280;5819;49.648;8.330;2023-10-13T00:40:25;100353.31;;;16.80;100.00
11525;BME280;5819;49.648;8.330;2023-10-13T00:43:10;100355.81;;;16.81;100.00
11525;BME280;5819;49.648;8.330;2023-10-13T00:46:02;100355.09;;;16.79;100.00
11525;BME280;5819;49.648;8.330;2023-10-13T00:48:38;100343.53;;;16.82;100.00
11525;BME280;5819;49.648;8.330;2023-10-13T00:51:18;100340.81;;;16.83;100.00
11525;BME280;5819;49.648;8.330;2023-10-13T00:54:02;100341.19;;;16.77;100.00
11525;BME280;5819;49.648;8.330;2023-10-13T00:56:34;100336.47;;;16.70;100.00
11525;BME280;5819;49.648;8.330;2023-10-13T00:59:07;100334.38;;;16.75;100.00
11525;BME280;5819;49.648;8.330;2023-10-13T01:01:37;100334.69;;;16.70;100.00
11525;BME280;5819;49.648;8.330;2023-10-13T01:04:05;100324.94;;;16.72;100.00
11525;BME280;5819;49.648;8.330;2023-10-13T01:06:35;100331.13;;;16.71;100.00
11525;BME280;5819;49.648;8.330;2023-10-13T01:09:06;100330.06;;;16.74;100.00
11525;BME280;5819;49.648;8.330;2023-10-13T01:11:42;100330.69;;;16.77;100.00
11525;BME280;5819;49.648;8.330;2023-10-13T01:14:09;100334.28;;;16.76;100.00
11525;BME280;5819;49.648;8.330;2023-10-13T01:16:38;100339.94;;;16.70;100.00
11525;BME280;5819;49.648;8.330;2023-10-13T01:19:08;100331.53;;;16.65;100.00
11525;BME280;5819;49.648;8.330;2023-10-13T01:21:38;100326.19;;;16.67;100.00
11525;BME280;5819;49.648;8.330;2023-10-13T01:24:10;100317.78;;;16.74;100.00
11525;BME280;5819;49.648;8.330;2023-10-13T01:26:42;100317.25;;;16.82;100.00
11525;BME280;5819;49.648;8.330;2023-10-13T01:29:10;100312.13;;;16.80;100.00
11525;BME280;5819;49.648;8.330;2023-10-13T01:31:42;100315.69;;;16.79;100.00
11525;BME280;5819;49.648;8.330;2023-10-13T01:34:14;100305.56;;;16.73;100.00
11525;BME280;5819;49.648;8.330;2023-10-13T01:36:49;100308.53;;;16.69;100.00
11525;BME280;5819;49.648;8.330;2023-10-13T01:39:20;100304.94;;;16.57;100.00
11525;BME280;5819;49.648;8.330;2023-10-13T01:41:48;100304.28;;;16.54;100.00
11525;BME280;5819;49.648;8.330;2023-10-13T01:44:23;100296.72;;;16.49;100.00
11525;BME280;5819;49.648;8.330;2023-10-13T01:46:50;100298.63;;;16.47;100.00
11525;BME280;5819;49.648;8.330;2023-10-13T01:49:19;100299.53;;;16.46;100.00
11525;BME280;5819;49.648;8.330;2023-10-13T01:51:49;100287.34;;;16.45;100.00
11525;BME280;5819;49.648;8.330;2023-10-13T01:54:17;100288.50;;;16.41;100.00
11525;BME280;5819;49.648;8.330;2023-10-13T01:56:46;100292.09;;;16.40;100.00
11525;BME280;5819;49.648;8.330;2023-10-13T01:59:17;100290.63;;;16.36;100.00
11525;BME280;5819;49.648;8.330;2023-10-13T02:01:44;100287.03;;;16.37;100.00
11525;BME280;5819;49.648;8.330;2023-10-13T02:04:12;100281.91;;;16.35;100.00
11525;BME280;5819;49.648;8.330;2023-10-13T02:06:40;100285.56;;;16.33;100.00
11525;BME280;5819;49.648;8.330;2023-10-13T02:09:09;100276.03;;;16.32;100.00
11525;BME280;5819;49.648;8.330;2023-10-13T02:11:40;100278.09;;;16.27;100.00
11525;BME280;5819;49.648;8.330;2023-10-13T02:14:09;100274.00;;;16.23;100.00
11525;BME280;5819;49.648;8.330;2023-10-13T02:16:38;100267.38;;;16.17;100.00
11525;BME280;5819;49.648;8.330;2023-10-13T02:19:07;100263.09;;;16.16;100.00
11525;BME280;5819;49.648;8.330;2023-10-13T02:21:36;100274.81;;;16.11;100.00
11525;BME280;5819;49.648;8.330;2023-10-13T02:24:11;100273.75;;;16.01;100.00
11525;BME280;5819;49.648;8.330;2023-10-13T02:26:40;100279.06;;;15.86;100.00
11525;BME280;5819;49.648;8.330;2023-10-13T02:29:10;100278.00;;;15.76;100.00
11525;BME280;5819;49.648;8.330;2023-10-13T02:31:40;100280.50;;;15.78;100.00
11525;BME280;5819;49.648;8.330;2023-10-13T02:34:08;100266.78;;;15.87;100.00
11525;BME280;5819;49.648;8.330;2023-10-13T02:36:36;100272.88;;;15.87;100.00
11525;BME280;5819;49.648;8.330;2023-10-13T02:39:10;100276.38;;;15.74;100.00
11525;BME280;5819;49.648;8.330;2023-10-13T02:41:40;100268.38;;;15.63;100.00
11525;BME280;5819;49.648;8.330;2023-10-13T02:44:09;100270.25;;;15.61;100.00
11525;BME280;5819;49.648;8.330;2023-10-13T02:46:42;100264.63;;;15.67;100.00
11525;BME280;5819;49.648;8.330;2023-10-13T02:49:09;100265.75;;;15.63;100.00
11525;BME280;5819;49.648;8.330;2023-10-13T02:51:38;100262.59;;;15.58;100.00
11525;BME280;5819;49.648;8.330;2023-10-13T02:54:09;100253.03;;;15.57;100.00
11525;BME280;5819;49.648;8.330;2023-10-13T02:56:38;100247.19;;;15.66;100.00
11525;BME280;5819;49.648;8.330;2023-10-13T02:59:16;100239.88;;;15.71;100.00
11525;BME280;5819;49.648;8.330;2023-10-13T03:01:46;100237.34;;;15.69;100.00
11525;BME280;5819;49.648;8.330;2023-10-13T03:04:13;100239.03;;;15.70;100.00
11525;BME280;5819;49.648;8.330;2023-10-13T03:06:41;100247.19;;;15.66;100.00
11525;BME280;5819;49.648;8.330;2023-10-13T03:09:09;100246.34;;;15.65;100.00
11525;BME280;5819;49.648;8.330;2023-10-13T03:11:46;100249.94;;;15.64;100.00
11525;BME280;5819;49.648;8.330;2023-10-13T03:14:16;100243.38;;;15.57;100.00
11525;BME280;5819;49.648;8.330;2023-10-13T03:16:59;100238.91;;;15.59;100.00
11525;BME280;5819;49.648;8.330;2023-10-13T03:19:29;100238.25;;;15.56;100.00
11525;BME280;5819;49.648;8.330;2023-10-13T03:22:01;100241.91;;;15.53;100.00
11525;BME280;5819;49.648;8.330;2023-10-13T03:24:36;100237.13;;;15.60;100.00
11525;BME280;5819;49.648;8.330;2023-10-13T03:27:11;100228.19;;;15.62;100.00
11525;BME280;5819;49.648;8.330;2023-10-13T03:29:45;100220.03;;;15.67;100.00
11525;BME280;5819;49.648;8.330;2023-10-13T03:32:15;100215.63;;;15.67;100.00
11525;BME280;5819;49.648;8.330;2023-10-13T03:34:45;100218.25;;;15.67;100.00
11525;BME280;5819;49.648;8.330;2023-10-13T03:37:34;100214.25;;;15.62;100.00
11525;BME280;5819;49.648;8.330;2023-10-13T03:40:07;100218.13;;;15.56;100.00
11525;BME280;5819;49.648;8.330;2023-10-13T03:42:57;100208.28;;;15.60;100.00
11525;BME280;5819;49.648;8.330;2023-10-13T03:45:34;100201.97;;;15.62;100.00
11525;BME280;5819;49.648;8.330;2023-10-13T03:48:07;100201.59;;;15.68;100.00
11525;BME280;5819;49.648;8.330;2023-10-13T03:50:57;100196.63;;;15.64;100.00
11525;BME280;5819;49.648;8.330;2023-10-13T03:53:34;100192.03;;;15.67;100.00
11525;BME280;5819;49.648;8.330;2023-10-13T03:56:06;100193.59;;;15.70;100.00
11525;BME280;5819;49.648;8.330;2023-10-13T03:58:39;100194.53;;;15.69;100.00
11525;BME280;5819;49.648;8.330;2023-10-13T04:01:14;100185.84;;;15.68;100.00
11525;BME280;5819;49.648;8.330;2023-10-13T04:03:44;100197.16;;;15.56;100.00
11525;BME280;5819;49.648;8.330;2023-10-13T04:06:30;100197.63;;;15.49;100.00
11525;BME280;5819;49.648;8.330;2023-10-13T04:09:13;100210.91;;;15.45;100.00
11525;BME280;5819;49.648;8.330;2023-10-13T04:11:58;100204.63;;;15.48;100.00
11525;BME280;5819;49.648;8.330;2023-10-13T04:14:44;100208.03;;;15.50;100.00
11525;BME280;5819;49.648;8.330;2023-10-13T04:17:32;100212.97;;;15.55;100.00
11525;BME280;5819;49.648;8.330;2023-10-13T04:20:07;100209.84;;;15.62;100.00
11525;BME280;5819;49.648;8.330;2023-10-13T04:22:53;100199.06;;;15.67;100.00
11525;BME280;5819;49.648;8.330;2023-10-13T04:25:38;100190.69;;;15.74;100.00
11525;BME280;5819;49.648;8.330;2023-10-13T04:28:19;100178.53;;;15.86;100.00
11525;BME280;5819;49.648;8.330;2023-10-13T04:31:01;100178.09;;;15.79;100.00
11525;BME280;5819;49.648;8.330;2023-10-13T04:33:40;100164.44;;;15.74;100.00
11525;BME280;5819;49.648;8.330;2023-10-13T04:36:18;100171.78;;;15.69;100.00
11525;BME280;5819;49.648;8.330;2023-10-13T04:39:03;100167.38;;;15.70;100.00
11525;BME280;5819;49.648;8.330;2023-10-13T04:41:37;100158.88;;;15.66;100.00
11525;BME280;5819;49.648;8.330;2023-10-13T04:44:13;100157.81;;;15.69;100.00
11525;BME280;5819;49.648;8.330;2023-10-13T04:47:10;100164.88;;;15.68;100.00
11525;BME280;5819;49.648;8.330;2023-10-13T04:49:49;100162.75;;;15.73;100.00
11525;BME280;5819;49.648;8.330;2023-10-13T04:52:17;100158.81;;;15.80;100.00
11525;BME280;5819;49.648;8.330;2023-10-13T04:55:17;100161.94;;;15.85;100.00
11525;BME280;5819;49.648;8.330;2023-10-13T04:57:59;100160.78;;;15.89;100.00
11525;BME280;5819;49.648;8.330;2023-10-13T05:01:03;100158.94;;;15.91;100.00
11525;BME280;5819;49.648;8.330;2023-10-13T05:03:49;100138.97;;;15.89;100.00
11525;BME280;5819;49.648;8.330;2023-10-13T05:06:36;100130.38;;;15.87;100.00
11525;BME280;5819;49.648;8.330;2023-10-13T05:09:22;100129.97;;;15.80;100.00
11525;BME280;5819;49.648;8.330;2023-10-13T05:12:07;100140.59;;;15.65;100.00
11525;BME280;5819;49.648;8.330;2023-10-13T05:14:53;100136.72;;;15.58;100.00
11525;BME280;5819;49.648;8.330;2023-10-13T05:17:38;100131.06;;;15.51;100.00
11525;BME280;5819;49.648;8.330;2023-10-13T05:20:26;100136.22;;;15.38;100.00
11525;BME280;5819;49.648;8.330;2023-10-13T05:23:12;100134.31;;;15.28;100.00
11525;BME280;5819;49.648;8.330;2023-10-13T05:26:01;100141.19;;;15.16;100.00
11525;BME280;5819;49.648;8.330;2023-10-13T05:28:46;100139.81;;;15.11;100.00
11525;BME280;5819;49.648;8.330;2023-10-13T05:31:53;100128.81;;;15.18;100.00
11525;BME280;5819;49.648;8.330;2023-10-13T05:34:39;100116.69;;;15.30;100.00
11525;BME280;5819;49.648;8.330;2023-10-13T05:37:24;100113.56;;;15.37;100.00
11525;BME280;5819;49.648;8.330;2023-10-13T05:40:11;100113.41;;;15.40;100.00
11525;BME280;5819;49.648;8.330;2023-10-13T05:42:53;100115.47;;;15.35;100.00
11525;BME280;5819;49.648;8.330;2023-10-13T05:45:39;100115.25;;;15.38;100.00
11525;BME280;5819;49.648;8.330;2023-10-13T05:48:24;100116.66;;;15.44;100.00
11525;BME280;5819;49.648;8.330;2023-10-13T05:51:08;100119.91;;;15.48;100.00
11525;BME280;5819;49.648;8.330;2023-10-13T05:53:53;100122.06;;;15.41;100.00
11525;BME280;5819;49.648;8.330;2023-10-13T05:56:41;100123.97;;;15.39;100.00
11525;BME280;5819;49.648;8.330;2023-10-13T05:59:28;100126.69;;;15.37;100.00
11525;BME280;5819;49.648;8.330;2023-10-13T06:02:15;100127.72;;;15.35;100.00
11525;BME280;5819;49.648;8.330;2023-10-13T06:05:01;100123.75;;;15.42;100.00
11525;BME280;5819;49.648;8.330;2023-10-13T06:07:47;100120.66;;;15.50;100.00
11525;BME280;5819;49.648;8.330;2023-10-13T06:10:32;100118.66;;;15.53;100.00
11525;BME280;5819;49.648;8.330;2023-10-13T06:13:19;100119.22;;;15.58;100.00
11525;BME280;5819;49.648;8.330;2023-10-13T06:16:17;100118.16;;;15.61;100.00
11525;BME280;5819;49.648;8.330;2023-10-13T06:19:03;100120.59;;;15.64;100.00
11525;BME280;5819;49.648;8.330;2023-10-13T06:21:49;100129.31;;;15.64;100.00
11525;BME280;5819;49.648;8.330;2023-10-13T06:24:34;100133.50;;;15.67;100.00
11525;BME280;5819;49.648;8.330;2023-10-13T06:27:19;100134.13;;;15.70;100.00
11525;BME280;5819;49.648;8.330;2023-10-13T06:30:08;100135.50;;;15.76;100.00
11525;BME280;5819;49.648;8.330;2023-10-13T06:32:36;100144.63;;;15.83;100.00
11525;BME280;5819;49.648;8.330;2023-10-13T06:35:07;100142.25;;;15.93;100.00
11525;BME280;5819;49.648;8.330;2023-10-13T06:37:35;100137.72;;;16.07;100.00
11525;BME280;5819;49.648;8.330;2023-10-13T06:40:10;100135.94;;;16.20;100.00
11525;BME280;5819;49.648;8.330;2023-10-13T06:42:50;100135.41;;;16.28;100.00
11525;BME280;5819;49.648;8.330;2023-10-13T06:45:21;100135.72;;;16.36;100.00
11525;BME280;5819;49.648;8.330;2023-10-13T06:47:50;100132.88;;;16.39;100.00
11525;BME280;5819;49.648;8.330;2023-10-13T06:50:20;100132.44;;;16.45;100.00
11525;BME280;5819;49.648;8.330;2023-10-13T06:52:52;100132.88;;;16.52;100.00
11525;BME280;5819;49.648;8.330;2023-10-13T06:55:22;100133.47;;;16.55;100.00
11525;BME280;5819;49.648;8.330;2023-10-13T06:57:54;100131.09;;;16.65;100.00
11525;BME280;5819;49.648;8.330;2023-10-13T07:00:29;100129.38;;;16.76;100.00
11525;BME280;5819;49.648;8.330;2023-10-13T07:03:02;100130.47;;;16.85;100.00
11525;BME280;5819;49.648;8.330;2023-10-13T07:05:35;100130.91;;;16.92;100.00
11525;BME280;5819;49.648;8.330;2023-10-13T07:08:06;100126.25;;;16.95;100.00
11525;BME280;5819;49.648;8.330;2023-10-13T07:10:34;100125.19;;;16.98;100.00
11525;BME280;5819;49.648;8.330;2023-10-13T07:13:12;100121.09;;;16.94;100.00
11525;BME280;5819;49.648;8.330;2023-10-13T07:15:42;100126.81;;;16.88;100.00
11525;BME280;5819;49.648;8.330;2023-10-13T07:18:13;100131.84;;;16.91;100.00
11525;BME280;5819;49.648;8.330;2023-10-13T07:20:42;100131.31;;;16.85;100.00
11525;BME280;5819;49.648;8.330;2023-10-13T07:23:14;100142.25;;;16.92;100.00
11525;BME280;5819;49.648;8.330;2023-10-13T07:25:54;100136.44;;;17.00;100.00
11525;BME280;5819;49.648;8.330;2023-10-13T07:28:29;100128.84;;;17.08;100.00
11525;BME280;5819;49.648;8.330;2023-10-13T07:31:00;100124.56;;;17.18;100.00
11525;BME280;5819;49.648;8.330;2023-10-13T07:33:39;100131.09;;;17.25;100.00
11525;BME280;5819;49.648;8.330;2023-10-13T07:36:09;100116.28;;;17.35;100.00
11525;BME280;5819;49.648;8.330;2023-10-13T07:38:42;100123.03;;;17.50;100.00
11525;BME280;5819;49.648;8.330;2023-10-13T07:41:28;100116.88;;;17.62;100.00
11525;BME280;5819;49.648;8.330;2023-10-13T07:43:58;100111.34;;;17.54;100.00
11525;BME280;5819;49.648;8.330;2023-10-13T07:46:27;100111.06;;;17.46;100.00
11525;BME280;5819;49.648;8.330;2023-10-13T07:48:58;100119.03;;;17.33;100.00
11525;BME280;5819;49.648;8.330;2023-10-13T07:51:37;100116.03;;;17.27;100.00
11525;BME280;5819;49.648;8.330;2023-10-13T07:54:13;100121.28;;;17.27;100.00
11525;BME280;5819;49.648;8.330;2023-10-13T07:56:49;100125.19;;;17.21;100.00
11525;BME280;5819;49.648;8.330;2023-10-13T07:59:17;100129.00;;;17.17;100.00
11525;BME280;5819;49.648;8.330;2023-10-13T08:01:50;100128.88;;;17.19;100.00
11525;BME280;5819;49.648;8.330;2023-10-13T08:04:39;100119.28;;;17.42;100.00
11525;BME280;5819;49.648;8.330;2023-10-13T08:07:07;100111.63;;;17.62;100.00
11525;BME280;5819;49.648;8.330;2023-10-13T08:09:41;100106.44;;;17.85;100.00
11525;BME280;5819;49.648;8.330;2023-10-13T08:12:10;100102.38;;;18.14;100.00
11525;BME280;5819;49.648;8.330;2023-10-13T08:14:38;100088.28;;;18.37;100.00
11525;BME280;5819;49.648;8.330;2023-10-13T08:17:08;100092.44;;;18.51;100.00
11525;BME280;5819;49.648;8.330;2023-10-13T08:19:37;100091.34;;;18.76;100.00
11525;BME280;5819;49.648;8.330;2023-10-13T08:22:12;100088.63;;;18.98;100.00
11525;BME280;5819;49.648;8.330;2023-10-13T08:24:53;100077.50;;;19.26;99.61
11525;BME280;5819;49.648;8.330;2023-10-13T08:27:42;100081.97;;;19.57;97.69
11525;BME280;5819;49.648;8.330;2023-10-13T08:30:33;100071.63;;;19.75;91.59
11525;BME280;5819;49.648;8.330;2023-10-13T08:33:19;100061.84;;;19.87;92.30
11525;BME280;5819;49.648;8.330;2023-10-13T08:35:51;100059.25;;;19.96;90.84
11525;BME280;5819;49.648;8.330;2023-10-13T08:38:32;100044.41;;;20.05;89.35
11525;BME280;5819;49.648;8.330;2023-10-13T08:41:17;100049.50;;;20.27;89.18
11525;BME280;5819;49.648;8.330;2023-10-13T08:44:01;100057.78;;;20.34;87.07
11525;BME280;5819;49.648;8.330;2023-10-13T08:46:31;100063.06;;;20.34;88.09
11525;BME280;5819;49.648;8.330;2023-10-13T08:49:28;100053.28;;;20.34;87.53
11525;BME280;5819;49.648;8.330;2023-10-13T08:51:56;100051.78;;;20.32;86.84
11525;BME280;5819;49.648;8.330;2023-10-13T08:54:35;100042.31;;;20.29;87.48
11525;BME280;5819;49.648;8.330;2023-10-13T08:57:12;100044.13;;;20.38;86.29
11525;BME280;5819;49.648;8.330;2023-10-13T09:00:00;100035.03;;;20.22;85.97
11525;BME280;5819;49.648;8.330;2023-10-13T09:02:42;100031.97;;;20.26;85.38
11525;BME280;5819;49.648;8.330;2023-10-13T09:05:56;100021.56;;;20.25;86.47
11525;BME280;5819;49.648;8.330;2023-10-13T09:08:33;100019.00;;;20.53;86.34
11525;BME280;5819;49.648;8.330;2023-10-13T09:11:11;100010.13;;;20.74;86.03
11525;BME280;5819;49.648;8.330;2023-10-13T09:13:39;100000.41;;;20.93;83.91
11525;BME280;5819;49.648;8.330;2023-10-13T09:16:14;99991.91;;;21.09;83.82
11525;BME280;5819;49.648;8.330;2023-10-13T09:18:49;99988.72;;;21.15;85.20
11525;BME280;5819;49.648;8.330;2023-10-13T09:21:20;99974.47;;;21.35;82.91
11525;BME280;5819;49.648;8.330;2023-10-13T09:24:11;99972.91;;;21.42;82.50
11525;BME280;5819;49.648;8.330;2023-10-13T09:26:54;99968.31;;;21.54;83.02
11525;BME280;5819;49.648;8.330;2023-10-13T09:29:22;99956.69;;;21.65;81.51
11525;BME280;5819;49.648;8.330;2023-10-13T09:32:02;99950.34;;;21.85;81.81
11525;BME280;5819;49.648;8.330;2023-10-13T09:34:31;99927.69;;;22.00;78.45
11525;BME280;5819;49.648;8.330;2023-10-13T09:37:02;99943.59;;;22.00;78.45
11525;BME280;5819;49.648;8.330;2023-10-13T09:39:32;99936.44;;;22.28;76.55
11525;BME280;5819;49.648;8.330;2023-10-13T09:42:12;99926.59;;;22.20;75.94
11525;BME280;5819;49.648;8.330;2023-10-13T09:44:43;99928.63;;;22.09;76.68
11525;BME280;5819;49.648;8.330;2023-10-13T09:47:21;99928.50;;;22.10;76.59
11525;BME280;5819;49.648;8.330;2023-10-13T09:50:00;99930.41;;;22.18;77.01
11525;BME280;5819;49.648;8.330;2023-10-13T09:52:35;99923.94;;;22.20;77.41
11525;BME280;5819;49.648;8.330;2023-10-13T09:55:21;99924.78;;;22.21;76.38
11525;BME280;5819;49.648;8.330;2023-10-13T09:57:54;99915.59;;;22.15;76.03
11525;BME280;5819;49.648;8.330;2023-10-13T10:00:29;99917.53;;;22.40;76.03
11525;BME280;5819;49.648;8.330;2023-10-13T10:03:23;99908.63;;;22.77;73.88
11525;BME280;5819;49.648;8.330;2023-10-13T10:05:58;99911.88;;;22.71;74.50
11525;BME280;5819;49.648;8.330;2023-10-13T10:08:34;99913.97;;;22.85;73.29
11525;BME280;5819;49.648;8.330;2023-10-13T10:11:32;99912.81;;;23.05;72.60
11525;BME280;5819;49.648;8.330;2023-10-13T10:14:10;99907.34;;;23.32;71.62
11525;BME280;5819;49.648;8.330;2023-10-13T10:16:51;99912.28;;;23.27;70.61
11525;BME280;5819;49.648;8.330;2023-10-13T10:19:30;99905.66;;;23.31;70.68
11525;BME280;5819;49.648;8.330;2023-10-13T10:22:03;99923.91;;;23.26;71.75
11525;BME280;5819;49.648;8.330;2023-10-13T10:24:56;99915.16;;;23.34;71.72
11525;BME280;5819;49.648;8.330;2023-10-13T10:27:25;99907.91;;;23.44;73.28
11525;BME280;5819;49.648;8.330;2023-10-13T10:29:56;99895.28;;;23.72;70.84
11525;BME280;5819;49.648;8.330;2023-10-13T10:32:35;99886.81;;;24.18;70.41
11525;BME280;5819;49.648;8.330;2023-10-13T10:35:08;99869.84;;;24.28;66.37
11525;BME280;5819;49.648;8.330;2023-10-13T10:37:42;99883.16;;;24.28;69.54
11525;BME280;5819;49.648;8.330;2023-10-13T10:40:16;99869.88;;;24.36;66.71
11525;BME280;5819;49.648;8.330;2023-10-13T10:43:00;99868.88;;;24.29;64.87
11525;BME280;5819;49.648;8.330;2023-10-13T10:45:55;99874.97;;;24.13;66.54
11525;BME280;5819;49.648;8.330;2023-10-13T10:48:26;99860.38;;;24.17;65.80
11525;BME280;5819;49.648;8.330;2023-10-13T10:51:01;99864.88;;;24.33;66.61
11525;BME280;5819;49.648;8.330;2023-10-13T10:53:41;99855.44;;;24.46;65.28
11525;BME280;5819;49.648;8.330;2023-10-13T10:56:15;99853.91;;;24.68;65.03
11525;BME280;5819;49.648;8.330;2023-10-13T10:58:54;99844.84;;;25.34;62.77
11525;BME280;5819;49.648;8.330;2023-10-13T11:01:23;99834.34;;;25.79;62.07
11525;BME280;5819;49.648;8.330;2023-10-13T11:03:56;99825.13;;;25.90;60.89
11525;BME280;5819;49.648;8.330;2023-10-13T11:06:34;99846.47;;;25.43;63.95
11525;BME280;5819;49.648;8.330;2023-10-13T11:09:09;99844.25;;;25.15;61.73
11525;BME280;5819;49.648;8.330;2023-10-13T11:11:49;99847.59;;;24.93;62.88
11525;BME280;5819;49.648;8.330;2023-10-13T11:14:23;99845.63;;;24.87;61.73
11525;BME280;5819;49.648;8.330;2023-10-13T11:16:51;99833.63;;;24.83;62.49
11525;BME280;5819;49.648;8.330;2023-10-13T11:19:21;99831.97;;;24.90;60.49
11525;BME280;5819;49.648;8.330;2023-10-13T11:21:52;99822.19;;;24.91;58.89
11525;BME280;5819;49.648;8.330;2023-10-13T11:24:22;99822.16;;;24.99;59.28
11525;BME280;5819;49.648;8.330;2023-10-13T11:26:51;99814.09;;;25.23;58.38
11525;BME280;5819;49.648;8.330;2023-10-13T11:29:31;99814.69;;;25.41;58.35
11525;BME280;5819;49.648;8.330;2023-10-13T11:32:01;99795.91;;;25.35;58.54
11525;BME280;5819;49.648;8.330;2023-10-13T11:34:30;99788.84;;;25.50;58.37
11525;BME280;5819;49.648;8.330;2023-10-13T11:37:07;99793.31;;;25.19;57.75
11525;BME280;5819;49.648;8.330;2023-10-13T11:39:52;99789.66;;;25.20;57.17
11525;BME280;5819;49.648;8.330;2023-10-13T11:42:21;99795.22;;;24.94;58.54
11525;BME280;5819;49.648;8.330;2023-10-13T11:44:53;99780.03;;;25.10;55.98
11525;BME280;5819;49.648;8.330;2023-10-13T11:47:41;99782.69;;;25.10;56.81
11525;BME280;5819;49.648;8.330;2023-10-13T11:50:15;99762.03;;;26.05;55.68
11525;BME280;5819;49.648;8.330;2023-10-13T11:52:59;99739.69;;;26.95;52.12
11525;BME280;5819;49.648;8.330;2023-10-13T11:55:27;99723.28;;;27.64;51.36
11525;BME280;5819;49.648;8.330;2023-10-13T11:57:56;99707.03;;;28.08;49.09
11525;BME280;5819;49.648;8.330;2023-10-13T12:00:26;99688.19;;;28.78;48.37
11525;BME280;5819;49.648;8.330;2023-10-13T12:03:14;99672.09;;;29.25;45.22
11525;BME280;5819;49.648;8.330;2023-10-13T12:06:09;99674.03;;;29.38;45.74
11525;BME280;5819;49.648;8.330;2023-10-13T12:08:49;99673.03;;;29.65;44.69
11525;BME280;5819;49.648;8.330;2023-10-13T12:11:19;99682.34;;;29.02;44.70
11525;BME280;5819;49.648;8.330;2023-10-13T12:14:00;99695.72;;;28.96;46.68
11525;BME280;5819;49.648;8.330;2023-10-13T12:16:43;99671.91;;;29.27;45.20
11525;BME280;5819;49.648;8.330;2023-10-13T12:19:16;99664.13;;;29.32;44.38
11525;BME280;5819;49.648;8.330;2023-10-13T12:21:43;99659.81;;;29.44;43.42
11525;BME280;5819;49.648;8.330;2023-10-13T12:24:13;99654.06;;;29.54;42.25
11525;BME280;5819;49.648;8.330;2023-10-13T12:26:49;99650.50;;;29.34;42.96
11525;BME280;5819;49.648;8.330;2023-10-13T12:29:26;99654.25;;;29.33;43.16
11525;BME280;5819;49.648;8.330;2023-10-13T12:31:55;99648.41;;;29.22;42.49
11525;BME280;5819;49.648;8.330;2023-10-13T12:34:35;99651.84;;;29.10;42.78
11525;BME280;5819;49.648;8.330;2023-10-13T12:37:43;99647.53;;;29.09;43.09
11525;BME280;5819;49.648;8.330;2023-10-13T12:40:31;99655.72;;;28.94;42.38
11525;BME280;5819;49.648;8.330;2023-10-13T12:43:16;99637.97;;;28.80;41.17
11525;BME280;5819;49.648;8.330;2023-10-13T12:46:03;99660.06;;;28.05;42.23
11525;BME280;5819;49.648;8.330;2023-10-13T12:48:49;99656.94;;;27.95;41.21
11525;BME280;5819;49.648;8.330;2023-10-13T12:51:31;99643.59;;;28.23;40.95
11525;BME280;5819;49.648;8.330;2023-10-13T12:54:17;99641.91;;;28.22;39.79
11525;BME280;5819;49.648;8.330;2023-10-13T12:56:50;99645.84;;;28.26;40.89
11525;BME280;5819;49.648;8.330;2023-10-13T12:59:23;99636.69;;;28.42;41.02
11525;BME280;5819;49.648;8.330;2023-10-13T13:01:55;99624.94;;;28.36;39.07
11525;BME280;5819;49.648;8.330;2023-10-13T13:04:23;99611.41;;;28.51;37.62
11525;BME280;5819;49.648;8.330;2023-10-13T13:06:54;99605.91;;;28.65;37.90
11525;BME280;5819;49.648;8.330;2023-10-13T13:09:22;99611.50;;;28.64;37.99
11525;BME280;5819;49.648;8.330;2023-10-13T13:11:53;99602.63;;;28.63;38.01
11525;BME280;5819;49.648;8.330;2023-10-13T13:14:23;99608.56;;;28.18;38.59
11525;BME280;5819;49.648;8.330;2023-10-13T13:16:57;99614.34;;;28.21;38.60
11525;BME280;5819;49.648;8.330;2023-10-13T13:19:32;99612.06;;;28.18;38.70
11525;BME280;5819;49.648;8.330;2023-10-13T13:22:03;99613.59;;;28.06;38.27
11525;BME280;5819;49.648;8.330;2023-10-13T13:24:31;99609.97;;;28.14;38.72
11525;BME280;5819;49.648;8.330;2023-10-13T13:26:59;99622.19;;;28.02;38.93
11525;BME280;5819;49.648;8.330;2023-10-13T13:29:29;99615.66;;;27.76;38.64
11525;BME280;5819;49.648;8.330;2023-10-13T13:31:59;99622.25;;;27.38;39.57
11525;BME280;5819;49.648;8.330;2023-10-13T13:34:28;99621.75;;;27.28;40.33
11525;BME280;5819;49.648;8.330;2023-10-13T13:36:56;99630.88;;;27.19;42.05
11525;BME280;5819;49.648;8.330;2023-10-13T13:39:28;99609.41;;;27.27;40.41
11525;BME280;5819;49.648;8.330;2023-10-13T13:41:57;99612.44;;;27.45;40.07
11525;BME280;5819;49.648;8.330;2023-10-13T13:44:25;99609.97;;;27.43;40.73
11525;BME280;5819;49.648;8.330;2023-10-13T13:47:02;99594.25;;;27.76;38.23